• Join FlightAware (Why Join?)
  • Login
  • US Flag 
Rudolph Flight #1: Arrived! 
12:29PM EST


 

Airport Tracker/Info


-or-


 

Live Flight TrackerFlight Track Log ✈ N213RQ ✈ 02-May-2012 ✈ KBPT - KHOU

Flight Track Log - Related Links

Times and Time Zones

All times are in EDT time to prevent confusion due to time zone crossing. See the N213RQ flight status page for this flight to view local times or setup timezone preferences in your user account.

Time Position Orientation Groundspeed Altitude Reporting Facility
EDT Latitude Longitude Course Direction KTS MPH feet Rate Location/Type
10:29AM 29.9439 -94.0125 163° South 165 190 500  Level Houston Center
10:30AM 29.9067 -93.9997 179° South 215 247 2,300 2,820 Climbing Houston Center
10:31AM 29.8336 -93.9981 207° Southwest 271 312 5,400 2,820 Climbing Houston Center
10:32AM 29.7703 -94.0350 234° Southwest 285 328 8,100 2,100 Climbing Houston Center
10:33AM 29.7167 -94.1197 235° Southwest 302 348 10,000 840 Climbing Houston Center
10:34AM 29.6564 -94.2189 233° Southwest 368 423 10,000  Level Houston Center
10:35AM 29.5961 -94.3106 233° Southwest 374 430 10,000  Level Houston Center
10:36AM 29.5250 -94.4208 233° Southwest 366 421 10,000  Level Houston Center
10:37AM 29.4625 -94.5147 234° Southwest 370 426 10,000  Level Houston Center
10:38AM 29.4019 -94.6106 251° West 375 432 10,000 -540 Level Houston Center
10:39AM 29.3772 -94.6933 291° West 292 336 9,000 -1,380 Descending Houston Center
10:40AM 29.4083 -94.7872 301° West 275 316 7,300 -1,500 Descending Houston Center
10:41AM 29.4464 -94.8600 301° West 286 329 6,000 -720 Descending Houston Center
10:42AM 29.4864 -94.9353 299° West 276 318 6,000  Level Houston Center
10:43AM 29.5242 -95.0128 299° West 282 325 6,000  Level Houston Center
10:44AM 29.5678 -95.1025 296° West 284 327 6,000  Level Houston Center
10:45AM 29.5994 -95.1778 279° West 279 321 6,000  Level Houston Center
10:46AM 29.6117 -95.2664 276° West 275 316 6,000 -60 Level Houston Center
10:47AM 29.6197 -95.3528 296° West 235 270 5,900 -840 Descending Houston Center
10:48AM 29.6453 -95.4133 313° West 240 276 4,300 -1,020 Descending Houston Center
10:49AM 29.6856 -95.4625 327° Northwest 188 216 4,000 -360 Descending Houston Center
10:50AM 29.7267 -95.4928 37° Northeast 188 216 3,600 -900 Descending Houston Center
10:51AM 29.7692 -95.4561 111° Southeast 187 215 2,200 -840 Descending Houston Center
10:52AM 29.7539 -95.4100 137° Southeast 154 177 2,000 -120 Descending Houston Center
10:53AM 29.7194 -95.3731 135° Southeast 161 185 2,000 -300 Level Houston Center
10:55AM 29.6911 -95.3408 128° Southeast 133 153 1,400 -660 Descending Houston Center
10:56AM 29.6711 -95.3114 128° Southeast 116 133 700 -720 Descending Houston Center